PST,Max TemperatureF,Mean TemperatureF,Min TemperatureF,Max Dew PointF,MeanDew PointF,Min DewpointF,Max Humidity, Mean Humidity, Min Humidity, Max Sea Level PressureIn, Mean Sea Level PressureIn, Min Sea Level PressureIn, Max VisibilityMiles, Mean VisibilityMiles, Min VisibilityMiles, Max Wind SpeedMPH, Mean Wind SpeedMPH, Max Gust SpeedMPH,PrecipitationIn, CloudCover, Events, WindDirDegrees
2014-1-1,62,45,28,18,13,9,47,29,14,30.26,30.23,30.20,10,10,9,21,7,26,0.00,0,,114
2014-1-2,62,48,33,23,20,18,56,36,20,30.25,30.19,30.14,10,10,7,17,10,20,0.00,0,,116
2014-1-3,64,46,28,23,19,16,69,40,15,30.15,30.07,30.01,10,10,8,14,3,,0.00,0,,316
2014-1-4,60,46,33,25,20,18,56,35,20,30.14,30.05,29.99,10,9,5,13,8,,0.00,0,,316
2014-1-5,55,44,32,19,5,-2,52,22,10,30.31,30.24,30.14,10,10,8,21,13,28,0.00,0,,113
2014-1-6,57,44,30,5,1,-4,34,19,10,30.37,30.30,30.22,10,10,8,21,11,25,0.00,0,,111
2014-1-7,59,42,26,18,11,5,51,31,15,30.24,30.18,30.13,10,9,6,21,6,23,0.00,0,,312
2014-1-8,55,45,35,32,22,14,75,45,26,30.23,30.14,30.09,8,5,3,17,13,24,0.00,1,,310
2014-1-9,44,38,32,37,34,28,100,91,61,30.21,30.15,30.09,5,2,0,22,10,28,0.00,3,Fog,302
2014-1-10,51,38,24,41,34,25,100,85,54,30.27,30.21,30.18,10,5,0,23,6,29,0.00,2,Fog-Rain,317
2014-1-11,59,42,26,36,30,23,100,65,33,30.26,30.20,30.14,10,9,5,18,7,28,0.00,0,,304
2014-1-12,44,37,30,39,36,23,100,91,49,30.35,30.25,30.16,10,4,0,24,15,31,0.00,5,Fog-Rain,314
2014-1-13,57,44,30,21,12,10,45,28,16,30.48,30.42,30.35,10,10,8,22,12,28,0.00,0,,116
2014-1-14,66,49,32,12,5,0,41,16,7,30.52,30.45,30.42,10,10,8,22,11,31,0.00,0,,111
2014-1-15,66,52,37,9,6,3,26,15,9,30.45,30.39,30.33,10,10,9,18,11,23,0.00,0,,109
2014-1-16,64,50,37,5,0,-4,26,12,7,30.34,30.30,30.26,10,10,8,18,11,25,0.00,0,,114
2014-1-17,64,48,30,3,1,0,27,15,7,30.31,30.26,30.22,10,10,8,18,10,23,0.00,0,,119
2014-1-18,66,45,24,5,1,0,36,19,7,30.27,30.21,30.17,10,10,7,20,5,25,0.00,0,,121
2014-1-19,64,48,32,7,4,1,30,20,9,30.25,30.20,30.16,10,10,7,15,8,21,0.00,0,,123
2014-1-20,62,44,26,10,6,3,43,22,10,30.33,30.26,30.20,10,10,7,18,7,23,0.00,0,,118
2014-1-21,62,50,39,10,7,5,27,19,11,30.33,30.27,30.22,10,10,9,18,9,24,0.00,0,,119
2014-1-22,64,47,30,25,13,5,56,33,10,30.22,30.09,30.01,10,8,3,16,3,20,0.00,0,,100
2014-1-23,57,42,26,12,7,1,47,22,13,30.20,30.06,29.98,10,10,7,28,11,38,0.00,3,,111
2014-1-24,55,50,46,14,13,10,27,22,19,30.34,30.29,30.20,10,10,10,28,18,37,0.00,3,,110
2014-1-25,62,47,32,14,12,9,41,24,14,30.31,30.27,30.21,10,10,8,15,8,21,0.00,2,,112
2014-1-26,60,45,30,23,16,9,49,34,17,30.20,30.14,30.08,10,9,6,16,3,23,0.00,3,,296
2014-1-27,57,42,28,25,21,16,64,45,21,30.21,30.15,30.08,8,7,5,20,5,23,0.00,0,,316
2014-1-28,59,46,32,27,23,18,61,45,25,30.25,30.22,30.18,10,7,5,21,6,23,0.00,0,,302
2014-1-29,60,50,41,36,30,25,71,51,33,30.21,30.11,30.00,8,6,5,21,9,25,0.00,0,,303
2014-1-30,50,44,39,46,41,34,100,87,66,29.99,29.89,29.84,10,4,0,24,11,34,0.18,5,Fog-Rain,304
2014-1-31,41,37,33,41,35,28,100,95,70,29.99,29.92,29.82,10,6,0,26,16,36,0.42,7,Rain,304